sensor_id;sensor_type;location;lat;lon;timestamp;pressure;altitude;pressure_sealevel;temperature;humidity
14041;BME280;7095;51.388;6.196;2022-12-15T00:00:15;54648.41;;;-145.32;100.00
14041;BME280;7095;51.388;6.196;2022-12-15T00:03:05;54696.13;;;-145.32;100.00
14041;BME280;7095;51.388;6.196;2022-12-15T00:05:52;54700.09;;;-145.32;100.00
14041;BME280;7095;51.388;6.196;2022-12-15T00:08:39;54672.25;;;-145.32;100.00
14041;BME280;7095;51.388;6.196;2022-12-15T00:11:25;54702.09;;;-145.32;100.00
14041;BME280;7095;51.388;6.196;2022-12-15T00:14:11;54656.34;;;-145.32;100.00
14041;BME280;7095;51.388;6.196;2022-12-15T00:16:58;54714.03;;;-145.32;100.00
14041;BME280;7095;51.388;6.196;2022-12-15T00:19:44;54678.22;;;-145.32;100.00
14041;BME280;7095;51.388;6.196;2022-12-15T00:22:31;54684.19;;;-145.32;100.00
14041;BME280;7095;51.388;6.196;2022-12-15T00:25:18;54700.09;;;-145.32;100.00
14041;BME280;7095;51.388;6.196;2022-12-15T00:28:04;54672.25;;;-145.32;100.00
14041;BME280;7095;51.388;6.196;2022-12-15T00:30:51;54700.09;;;-145.32;100.00
14041;BME280;7095;51.388;6.196;2022-12-15T00:33:39;54688.16;;;-145.32;100.00
14041;BME280;7095;51.388;6.196;2022-12-15T00:36:24;54652.38;;;-145.32;100.00
14041;BME280;7095;51.388;6.196;2022-12-15T00:39:16;54676.25;;;-145.32;100.00
14041;BME280;7095;51.388;6.196;2022-12-15T00:41:44;54680.22;;;-145.32;100.00
14041;BME280;7095;51.388;6.196;2022-12-15T00:44:13;54676.25;;;-145.32;100.00
14041;BME280;7095;51.388;6.196;2022-12-15T00:46:47;54676.25;;;-145.32;100.00
14041;BME280;7095;51.388;6.196;2022-12-15T00:49:23;54674.25;;;-145.32;100.00
14041;BME280;7095;51.388;6.196;2022-12-15T00:52:10;54656.34;;;-145.32;100.00
14041;BME280;7095;51.388;6.196;2022-12-15T00:54:56;54708.06;;;-145.32;100.00
14041;BME280;7095;51.388;6.196;2022-12-15T00:57:42;54698.13;;;-145.32;100.00
14041;BME280;7095;51.388;6.196;2022-12-15T01:00:29;54700.09;;;-145.32;100.00
14041;BME280;7095;51.388;6.196;2022-12-15T01:03:17;54708.06;;;-145.32;100.00
14041;BME280;7095;51.388;6.196;2022-12-15T01:06:07;54684.19;;;-145.32;100.00
14041;BME280;7095;51.388;6.196;2022-12-15T01:08:54;54662.31;;;-145.32;100.00
14041;BME280;7095;51.388;6.196;2022-12-15T01:11:40;54688.16;;;-145.32;100.00
14041;BME280;7095;51.388;6.196;2022-12-15T01:14:26;54646.41;;;-145.32;100.00
14041;BME280;7095;51.388;6.196;2022-12-15T01:17:13;54662.31;;;-145.32;100.00
14041;BME280;7095;51.388;6.196;2022-12-15T01:19:59;54676.25;;;-145.32;100.00
14041;BME280;7095;51.388;6.196;2022-12-15T01:22:49;54781.66;;;-145.32;100.00
14041;BME280;7095;51.388;6.196;2022-12-15T01:25:20;54737.88;;;-145.32;100.00
14041;BME280;7095;51.388;6.196;2022-12-15T01:27:50;54656.34;;;-145.32;100.00
14041;BME280;7095;51.388;6.196;2022-12-15T01:30:20;54735.91;;;-145.32;100.00
14041;BME280;7095;51.388;6.196;2022-12-15T01:32:49;54692.16;;;-145.32;100.00
14041;BME280;7095;51.388;6.196;2022-12-15T01:35:19;54688.16;;;-145.32;100.00
14041;BME280;7095;51.388;6.196;2022-12-15T01:37:49;54704.09;;;-145.32;100.00
14041;BME280;7095;51.388;6.196;2022-12-15T01:40:19;54720.00;;;-145.32;100.00
14041;BME280;7095;51.388;6.196;2022-12-15T01:43:10;54656.34;;;-145.32;100.00
14041;BME280;7095;51.388;6.196;2022-12-15T01:46:00;54664.31;;;-145.32;100.00
14041;BME280;7095;51.388;6.196;2022-12-15T01:48:34;54690.16;;;-145.32;100.00
14041;BME280;7095;51.388;6.196;2022-12-15T01:51:21;54696.13;;;-145.32;100.00
14041;BME280;7095;51.388;6.196;2022-12-15T01:53:57;54704.09;;;-145.32;100.00
14041;BME280;7095;51.388;6.196;2022-12-15T01:56:31;54696.13;;;-145.32;100.00
14041;BME280;7095;51.388;6.196;2022-12-15T01:59:07;54718.00;;;-145.32;100.00
14041;BME280;7095;51.388;6.196;2022-12-15T02:01:36;54712.03;;;-145.32;100.00
14041;BME280;7095;51.388;6.196;2022-12-15T02:04:09;54700.09;;;-145.32;100.00
14041;BME280;7095;51.388;6.196;2022-12-15T02:06:37;54704.09;;;-145.32;100.00
14041;BME280;7095;51.388;6.196;2022-12-15T02:09:08;54712.03;;;-145.32;100.00
14041;BME280;7095;51.388;6.196;2022-12-15T02:11:53;54714.03;;;-145.32;100.00
14041;BME280;7095;51.388;6.196;2022-12-15T02:14:32;54658.34;;;-145.32;100.00
14041;BME280;7095;51.388;6.196;2022-12-15T02:17:17;54708.06;;;-145.32;100.00
14041;BME280;7095;51.388;6.196;2022-12-15T02:28:56;54680.22;;;-145.32;100.00
14041;BME280;7095;51.388;6.196;2022-12-15T02:31:33;54690.16;;;-145.32;100.00
14041;BME280;7095;51.388;6.196;2022-12-15T02:34:22;54664.31;;;-145.32;100.00
14041;BME280;7095;51.388;6.196;2022-12-15T02:36:57;54712.03;;;-145.32;100.00
14041;BME280;7095;51.388;6.196;2022-12-15T02:39:28;54708.06;;;-145.32;100.00
14041;BME280;7095;51.388;6.196;2022-12-15T02:41:57;54668.28;;;-145.32;100.00
14041;BME280;7095;51.388;6.196;2022-12-15T02:44:30;54704.09;;;-145.32;100.00
14041;BME280;7095;51.388;6.196;2022-12-15T02:47:16;54658.34;;;-145.32;100.00
14041;BME280;7095;51.388;6.196;2022-12-15T02:50:00;54672.25;;;-145.32;100.00
14041;BME280;7095;51.388;6.196;2022-12-15T02:52:44;54702.09;;;-145.32;100.00
14041;BME280;7095;51.388;6.196;2022-12-15T02:55:22;54686.19;;;-145.32;100.00
14041;BME280;7095;51.388;6.196;2022-12-15T02:58:00;54658.34;;;-145.32;100.00
14041;BME280;7095;51.388;6.196;2022-12-15T03:00:33;54700.09;;;-145.32;100.00
14041;BME280;7095;51.388;6.196;2022-12-15T03:03:06;54700.09;;;-145.32;100.00
14041;BME280;7095;51.388;6.196;2022-12-15T03:05:36;54684.19;;;-145.32;100.00
14041;BME280;7095;51.388;6.196;2022-12-15T03:08:05;54674.25;;;-145.32;100.00
14041;BME280;7095;51.388;6.196;2022-12-15T03:10:35;54680.22;;;-145.32;100.00
14041;BME280;7095;51.388;6.196;2022-12-15T03:13:03;54690.16;;;-145.32;100.00
14041;BME280;7095;51.388;6.196;2022-12-15T03:15:32;54720.00;;;-145.32;100.00
14041;BME280;7095;51.388;6.196;2022-12-15T03:18:02;54706.06;;;-145.32;100.00
14041;BME280;7095;51.388;6.196;2022-12-15T03:20:32;54739.88;;;-145.32;100.00
14041;BME280;7095;51.388;6.196;2022-12-15T03:23:00;54706.06;;;-145.32;100.00
14041;BME280;7095;51.388;6.196;2022-12-15T03:25:30;54706.06;;;-145.32;100.00
14041;BME280;7095;51.388;6.196;2022-12-15T03:27:59;54716.00;;;-145.32;100.00
14041;BME280;7095;51.388;6.196;2022-12-15T03:30:27;54733.91;;;-145.32;100.00
14041;BME280;7095;51.388;6.196;2022-12-15T03:32:56;54680.22;;;-145.32;100.00
14041;BME280;7095;51.388;6.196;2022-12-15T03:35:25;54692.16;;;-145.32;100.00
14041;BME280;7095;51.388;6.196;2022-12-15T03:37:55;54696.13;;;-145.32;100.00
14041;BME280;7095;51.388;6.196;2022-12-15T03:40:23;54733.91;;;-145.32;100.00
14041;BME280;7095;51.388;6.196;2022-12-15T03:42:52;54704.09;;;-145.32;100.00
14041;BME280;7095;51.388;6.196;2022-12-15T03:45:22;54725.97;;;-145.32;100.00
14041;BME280;7095;51.388;6.196;2022-12-15T03:47:52;54704.09;;;-145.32;100.00
14041;BME280;7095;51.388;6.196;2022-12-15T03:50:23;54684.19;;;-145.32;100.00
14041;BME280;7095;51.388;6.196;2022-12-15T03:52:55;54720.00;;;-145.32;100.00
14041;BME280;7095;51.388;6.196;2022-12-15T03:55:24;54690.16;;;-145.32;100.00
14041;BME280;7095;51.388;6.196;2022-12-15T03:57:55;54714.03;;;-145.32;100.00
14041;BME280;7095;51.388;6.196;2022-12-15T04:00:24;54684.19;;;-145.32;100.00
14041;BME280;7095;51.388;6.196;2022-12-15T04:02:53;54686.19;;;-145.32;100.00
14041;BME280;7095;51.388;6.196;2022-12-15T04:05:24;54712.03;;;-145.32;100.00
14041;BME280;7095;51.388;6.196;2022-12-15T04:07:55;54708.06;;;-145.32;100.00
14041;BME280;7095;51.388;6.196;2022-12-15T04:10:26;54718.00;;;-145.32;100.00
14041;BME280;7095;51.388;6.196;2022-12-15T04:13:02;54700.09;;;-145.32;100.00
14041;BME280;7095;51.388;6.196;2022-12-15T04:15:31;54676.25;;;-145.32;100.00
14041;BME280;7095;51.388;6.196;2022-12-15T04:18:00;54632.50;;;-145.32;100.00
14041;BME280;7095;51.388;6.196;2022-12-15T04:20:29;54666.28;;;-145.32;100.00
14041;BME280;7095;51.388;6.196;2022-12-15T04:23:00;54698.13;;;-145.32;100.00
14041;BME280;7095;51.388;6.196;2022-12-15T04:25:29;54674.25;;;-145.32;100.00
14041;BME280;7095;51.388;6.196;2022-12-15T04:28:15;54729.94;;;-145.32;100.00
14041;BME280;7095;51.388;6.196;2022-12-15T04:31:06;54731.94;;;-145.32;100.00
14041;BME280;7095;51.388;6.196;2022-12-15T04:33:55;54751.81;;;-145.32;100.00
14041;BME280;7095;51.388;6.196;2022-12-15T04:36:44;54702.09;;;-145.32;100.00
14041;BME280;7095;51.388;6.196;2022-12-15T04:39:33;54727.94;;;-145.32;100.00
14041;BME280;7095;51.388;6.196;2022-12-15T04:42:19;54712.03;;;-145.32;100.00
14041;BME280;7095;51.388;6.196;2022-12-15T04:45:07;54688.16;;;-145.32;100.00
14041;BME280;7095;51.388;6.196;2022-12-15T04:47:53;54729.94;;;-145.32;100.00
14041;BME280;7095;51.388;6.196;2022-12-15T04:50:39;54737.88;;;-145.32;100.00
14041;BME280;7095;51.388;6.196;2022-12-15T04:53:26;54712.03;;;-145.32;100.00
14041;BME280;7095;51.388;6.196;2022-12-15T04:56:14;54708.06;;;-145.32;100.00
14041;BME280;7095;51.388;6.196;2022-12-15T04:59:01;54712.03;;;-145.32;100.00
14041;BME280;7095;51.388;6.196;2022-12-15T05:01:48;54708.06;;;-145.32;100.00
14041;BME280;7095;51.388;6.196;2022-12-15T05:04:35;54716.00;;;-145.32;100.00
14041;BME280;7095;51.388;6.196;2022-12-15T05:07:23;54718.00;;;-145.32;100.00
14041;BME280;7095;51.388;6.196;2022-12-15T05:10:11;54684.19;;;-145.32;100.00
14041;BME280;7095;51.388;6.196;2022-12-15T05:13:04;54725.97;;;-145.32;100.00
14041;BME280;7095;51.388;6.196;2022-12-15T05:15:50;54718.00;;;-145.32;100.00
14041;BME280;7095;51.388;6.196;2022-12-15T05:18:37;54721.97;;;-145.32;100.00
14041;BME280;7095;51.388;6.196;2022-12-15T05:21:22;54710.06;;;-145.32;100.00
14041;BME280;7095;51.388;6.196;2022-12-15T05:24:09;54727.94;;;-145.32;100.00
14041;BME280;7095;51.388;6.196;2022-12-15T05:26:55;54698.13;;;-145.32;100.00
14041;BME280;7095;51.388;6.196;2022-12-15T05:29:43;54678.22;;;-145.32;100.00
14041;BME280;7095;51.388;6.196;2022-12-15T05:32:30;54692.16;;;-145.32;100.00
14041;BME280;7095;51.388;6.196;2022-12-15T05:34:59;54678.22;;;-145.32;100.00
14041;BME280;7095;51.388;6.196;2022-12-15T05:37:29;54727.94;;;-145.32;100.00
14041;BME280;7095;51.388;6.196;2022-12-15T05:39:57;54672.25;;;-145.32;100.00
14041;BME280;7095;51.388;6.196;2022-12-15T05:42:26;54706.06;;;-145.32;100.00
14041;BME280;7095;51.388;6.196;2022-12-15T05:44:56;54682.22;;;-145.32;100.00
14041;BME280;7095;51.388;6.196;2022-12-15T05:47:25;54727.94;;;-145.32;100.00
14041;BME280;7095;51.388;6.196;2022-12-15T05:49:54;54714.03;;;-145.32;100.00
14041;BME280;7095;51.388;6.196;2022-12-15T05:52:22;54712.03;;;-145.32;100.00
14041;BME280;7095;51.388;6.196;2022-12-15T05:54:51;54716.00;;;-145.32;100.00
14041;BME280;7095;51.388;6.196;2022-12-15T05:57:20;54676.25;;;-145.32;100.00
14041;BME280;7095;51.388;6.196;2022-12-15T05:59:48;54684.19;;;-145.32;100.00
14041;BME280;7095;51.388;6.196;2022-12-15T06:02:18;54702.09;;;-145.32;100.00
14041;BME280;7095;51.388;6.196;2022-12-15T06:04:47;54714.03;;;-145.32;100.00
14041;BME280;7095;51.388;6.196;2022-12-15T06:07:16;54723.97;;;-145.32;100.00
14041;BME280;7095;51.388;6.196;2022-12-15T06:09:45;54704.09;;;-145.32;100.00
14041;BME280;7095;51.388;6.196;2022-12-15T06:12:14;54704.09;;;-145.32;100.00
14041;BME280;7095;51.388;6.196;2022-12-15T06:14:43;54710.06;;;-145.32;100.00
14041;BME280;7095;51.388;6.196;2022-12-15T06:17:11;54686.19;;;-145.32;100.00
14041;BME280;7095;51.388;6.196;2022-12-15T06:19:41;54708.06;;;-145.32;100.00
14041;BME280;7095;51.388;6.196;2022-12-15T06:22:10;54710.06;;;-145.32;100.00
14041;BME280;7095;51.388;6.196;2022-12-15T06:24:39;54712.03;;;-145.32;100.00
14041;BME280;7095;51.388;6.196;2022-12-15T06:27:07;54704.09;;;-145.32;100.00
14041;BME280;7095;51.388;6.196;2022-12-15T06:29:36;54723.97;;;-145.32;100.00
14041;BME280;7095;51.388;6.196;2022-12-15T06:32:05;54706.06;;;-145.32;100.00
14041;BME280;7095;51.388;6.196;2022-12-15T06:34:33;54704.09;;;-145.32;100.00
14041;BME280;7095;51.388;6.196;2022-12-15T06:37:04;54727.94;;;-145.32;100.00
14041;BME280;7095;51.388;6.196;2022-12-15T06:39:33;54654.38;;;-145.32;100.00
14041;BME280;7095;51.388;6.196;2022-12-15T06:42:02;54688.16;;;-145.32;100.00
14041;BME280;7095;51.388;6.196;2022-12-15T06:44:31;54698.13;;;-145.32;100.00
14041;BME280;7095;51.388;6.196;2022-12-15T06:47:00;54676.25;;;-145.32;100.00
14041;BME280;7095;51.388;6.196;2022-12-15T06:49:29;54680.22;;;-145.32;100.00
14041;BME280;7095;51.388;6.196;2022-12-15T06:51:58;54692.16;;;-145.32;100.00
14041;BME280;7095;51.388;6.196;2022-12-15T06:54:27;54706.06;;;-145.32;100.00
14041;BME280;7095;51.388;6.196;2022-12-15T06:56:56;54720.00;;;-145.32;100.00
14041;BME280;7095;51.388;6.196;2022-12-15T06:59:24;54702.09;;;-145.32;100.00
14041;BME280;7095;51.388;6.196;2022-12-15T07:01:53;54727.94;;;-145.32;100.00
14041;BME280;7095;51.388;6.196;2022-12-15T07:04:22;54712.03;;;-145.32;100.00
14041;BME280;7095;51.388;6.196;2022-12-15T07:06:51;54716.00;;;-145.32;100.00
14041;BME280;7095;51.388;6.196;2022-12-15T07:09:19;54688.16;;;-145.32;100.00
14041;BME280;7095;51.388;6.196;2022-12-15T07:11:49;54706.06;;;-145.32;100.00
14041;BME280;7095;51.388;6.196;2022-12-15T07:14:19;54672.25;;;-145.32;100.00
14041;BME280;7095;51.388;6.196;2022-12-15T07:16:48;54741.88;;;-145.32;100.00
14041;BME280;7095;51.388;6.196;2022-12-15T07:19:17;54735.91;;;-145.32;100.00
14041;BME280;7095;51.388;6.196;2022-12-15T07:21:46;54708.06;;;-145.32;100.00
14041;BME280;7095;51.388;6.196;2022-12-15T07:24:14;54688.16;;;-145.32;100.00
14041;BME280;7095;51.388;6.196;2022-12-15T07:26:43;54692.16;;;-145.32;100.00
14041;BME280;7095;51.388;6.196;2022-12-15T07:29:16;54712.03;;;-145.32;100.00
14041;BME280;7095;51.388;6.196;2022-12-15T07:31:49;54692.16;;;-145.32;100.00
14041;BME280;7095;51.388;6.196;2022-12-15T07:34:19;54690.16;;;-145.32;100.00
14041;BME280;7095;51.388;6.196;2022-12-15T07:36:47;54696.13;;;-145.32;100.00
14041;BME280;7095;51.388;6.196;2022-12-15T07:39:19;54735.91;;;-145.32;100.00
14041;BME280;7095;51.388;6.196;2022-12-15T07:41:47;54708.06;;;-145.32;100.00
14041;BME280;7095;51.388;6.196;2022-12-15T07:44:17;54714.03;;;-145.32;100.00
14041;BME280;7095;51.388;6.196;2022-12-15T07:46:47;54698.13;;;-145.32;100.00
14041;BME280;7095;51.388;6.196;2022-12-15T07:49:16;54702.09;;;-145.32;100.00
14041;BME280;7095;51.388;6.196;2022-12-15T07:51:45;54706.06;;;-145.32;100.00
14041;BME280;7095;51.388;6.196;2022-12-15T07:54:14;54700.09;;;-145.32;100.00
14041;BME280;7095;51.388;6.196;2022-12-15T07:56:43;54704.09;;;-145.32;100.00
14041;BME280;7095;51.388;6.196;2022-12-15T07:59:18;54702.09;;;-145.32;100.00
14041;BME280;7095;51.388;6.196;2022-12-15T08:01:49;54727.94;;;-145.32;100.00
14041;BME280;7095;51.388;6.196;2022-12-15T08:04:19;54684.19;;;-145.32;100.00
14041;BME280;7095;51.388;6.196;2022-12-15T08:06:47;54712.03;;;-145.32;100.00
14041;BME280;7095;51.388;6.196;2022-12-15T08:09:17;54716.00;;;-145.32;100.00
14041;BME280;7095;51.388;6.196;2022-12-15T08:11:46;54700.09;;;-145.32;100.00
14041;BME280;7095;51.388;6.196;2022-12-15T08:14:15;54694.13;;;-145.32;100.00
14041;BME280;7095;51.388;6.196;2022-12-15T08:16:46;54706.06;;;-145.32;100.00
14041;BME280;7095;51.388;6.196;2022-12-15T08:19:16;54708.06;;;-145.32;100.00
14041;BME280;7095;51.388;6.196;2022-12-15T08:21:45;54712.03;;;-145.32;100.00
14041;BME280;7095;51.388;6.196;2022-12-15T08:24:15;54739.88;;;-145.32;100.00
14041;BME280;7095;51.388;6.196;2022-12-15T08:26:45;54731.94;;;-145.32;100.00
14041;BME280;7095;51.388;6.196;2022-12-15T08:29:16;54725.97;;;-145.32;100.00
14041;BME280;7095;51.388;6.196;2022-12-15T08:32:07;54706.06;;;-145.32;100.00
14041;BME280;7095;51.388;6.196;2022-12-15T08:34:36;54720.00;;;-145.32;100.00
14041;BME280;7095;51.388;6.196;2022-12-15T08:37:05;54727.94;;;-145.32;100.00
14041;BME280;7095;51.388;6.196;2022-12-15T08:39:34;54694.13;;;-145.32;100.00
14041;BME280;7095;51.388;6.196;2022-12-15T08:42:03;54733.91;;;-145.32;100.00
14041;BME280;7095;51.388;6.196;2022-12-15T08:44:31;54700.09;;;-145.32;100.00
14041;BME280;7095;51.388;6.196;2022-12-15T08:47:01;54716.00;;;-145.32;100.00
14041;BME280;7095;51.388;6.196;2022-12-15T08:49:31;54727.94;;;-145.32;100.00
14041;BME280;7095;51.388;6.196;2022-12-15T08:52:00;54712.03;;;-145.32;100.00
14041;BME280;7095;51.388;6.196;2022-12-15T08:54:28;54739.88;;;-145.32;100.00
14041;BME280;7095;51.388;6.196;2022-12-15T08:56:58;54725.97;;;-145.32;100.00
14041;BME280;7095;51.388;6.196;2022-12-15T08:59:27;54777.66;;;-145.32;100.00
14041;BME280;7095;51.388;6.196;2022-12-15T09:01:55;54729.94;;;-145.32;100.00
14041;BME280;7095;51.388;6.196;2022-12-15T09:04:25;54710.06;;;-145.32;100.00
14041;BME280;7095;51.388;6.196;2022-12-15T09:06:55;54759.78;;;-145.32;100.00
14041;BME280;7095;51.388;6.196;2022-12-15T09:09:23;54759.78;;;-145.32;100.00
14041;BME280;7095;51.388;6.196;2022-12-15T09:11:52;54727.94;;;-145.32;100.00
14041;BME280;7095;51.388;6.196;2022-12-15T09:14:21;54739.88;;;-145.32;100.00
14041;BME280;7095;51.388;6.196;2022-12-15T09:16:55;54727.94;;;-145.32;100.00
14041;BME280;7095;51.388;6.196;2022-12-15T09:19:24;54763.75;;;-145.32;100.00
14041;BME280;7095;51.388;6.196;2022-12-15T09:21:55;54771.69;;;-145.32;100.00
14041;BME280;7095;51.388;6.196;2022-12-15T09:24:24;54789.59;;;-145.32;100.00
14041;BME280;7095;51.388;6.196;2022-12-15T09:27:02;54763.75;;;-145.32;100.00
14041;BME280;7095;51.388;6.196;2022-12-15T09:29:31;54769.72;;;-145.32;100.00
14041;BME280;7095;51.388;6.196;2022-12-15T09:32:00;54769.72;;;-145.32;100.00
14041;BME280;7095;51.388;6.196;2022-12-15T09:34:35;54773.69;;;-145.32;100.00
14041;BME280;7095;51.388;6.196;2022-12-15T09:37:05;54807.50;;;-145.32;100.00
14041;BME280;7095;51.388;6.196;2022-12-15T09:39:36;54809.50;;;-145.32;100.00
14041;BME280;7095;51.388;6.196;2022-12-15T09:42:21;54807.50;;;-145.32;100.00
14041;BME280;7095;51.388;6.196;2022-12-15T09:44:58;54775.69;;;-145.32;100.00
14041;BME280;7095;51.388;6.196;2022-12-15T09:47:38;54807.50;;;-145.32;100.00
14041;BME280;7095;51.388;6.196;2022-12-15T09:50:10;54795.56;;;-145.32;100.00
14041;BME280;7095;51.388;6.196;2022-12-15T09:52:46;54805.50;;;-145.32;100.00
14041;BME280;7095;51.388;6.196;2022-12-15T09:55:18;54793.56;;;-145.32;100.00
14041;BME280;7095;51.388;6.196;2022-12-15T09:57:52;54875.13;;;-145.32;100.00
14041;BME280;7095;51.388;6.196;2022-12-15T10:00:23;54825.41;;;-145.32;100.00
14041;BME280;7095;51.388;6.196;2022-12-15T10:03:26;54841.31;;;-145.32;100.00
14041;BME280;7095;51.388;6.196;2022-12-15T10:06:04;54843.28;;;-145.32;100.00
14041;BME280;7095;51.388;6.196;2022-12-15T10:08:47;54793.56;;;-145.32;100.00
14041;BME280;7095;51.388;6.196;2022-12-15T10:11:27;54851.25;;;-145.32;100.00
14041;BME280;7095;51.388;6.196;2022-12-15T10:14:06;54851.25;;;-145.32;100.00
14041;BME280;7095;51.388;6.196;2022-12-15T10:16:47;54875.13;;;-145.32;100.00
14041;BME280;7095;51.388;6.196;2022-12-15T10:19:25;54843.28;;;-145.32;100.00
14041;BME280;7095;51.388;6.196;2022-12-15T10:21:56;54883.06;;;-145.32;100.00
14041;BME280;7095;51.388;6.196;2022-12-15T10:24:29;54855.22;;;-145.32;100.00
14041;BME280;7095;51.388;6.196;2022-12-15T10:27:35;54877.09;;;-145.32;100.00
14041;BME280;7095;51.388;6.196;2022-12-15T10:30:09;54867.16;;;-145.32;100.00
14041;BME280;7095;51.388;6.196;2022-12-15T10:32:44;54825.41;;;-145.32;100.00
14041;BME280;7095;51.388;6.196;2022-12-15T10:35:20;54879.09;;;-145.32;100.00
14041;BME280;7095;51.388;6.196;2022-12-15T10:37:50;54817.44;;;-145.32;100.00
14041;BME280;7095;51.388;6.196;2022-12-15T10:40:45;54883.06;;;-145.32;100.00
14041;BME280;7095;51.388;6.196;2022-12-15T10:43:25;54902.97;;;-145.32;100.00
14041;BME280;7095;51.388;6.196;2022-12-15T10:46:06;54881.09;;;-145.32;100.00
14041;BME280;7095;51.388;6.196;2022-12-15T10:48:38;54887.06;;;-145.32;100.00
14041;BME280;7095;51.388;6.196;2022-12-15T10:51:18;54855.22;;;-145.32;100.00
14041;BME280;7095;51.388;6.196;2022-12-15T10:53:50;54851.25;;;-145.32;100.00
14041;BME280;7095;51.388;6.196;2022-12-15T10:56:24;54859.22;;;-145.32;100.00
14041;BME280;7095;51.388;6.196;2022-12-15T10:59:01;54851.25;;;-145.32;100.00
14041;BME280;7095;51.388;6.196;2022-12-15T11:01:32;54867.16;;;-145.32;100.00
14041;BME280;7095;51.388;6.196;2022-12-15T11:04:02;54823.41;;;-145.32;100.00
14041;BME280;7095;51.388;6.196;2022-12-15T11:06:32;54899.00;;;-145.32;100.00
14041;BME280;7095;51.388;6.196;2022-12-15T11:09:08;54845.28;;;-145.32;100.00
14041;BME280;7095;51.388;6.196;2022-12-15T11:11:46;54845.28;;;-145.32;100.00
14041;BME280;7095;51.388;6.196;2022-12-15T11:14:43;54883.06;;;-145.32;100.00
14041;BME280;7095;51.388;6.196;2022-12-15T11:17:15;54877.09;;;-145.32;100.00
14041;BME280;7095;51.388;6.196;2022-12-15T11:19:49;54910.91;;;-145.32;100.00
14041;BME280;7095;51.388;6.196;2022-12-15T11:22:34;54881.09;;;-145.32;100.00
14041;BME280;7095;51.388;6.196;2022-12-15T11:25:13;54902.97;;;-145.32;100.00
14041;BME280;7095;51.388;6.196;2022-12-15T11:27:52;54875.13;;;-145.32;100.00
14041;BME280;7095;51.388;6.196;2022-12-15T11:30:24;54873.13;;;-145.32;100.00
14041;BME280;7095;51.388;6.196;2022-12-15T11:32:58;54851.25;;;-145.32;100.00
14041;BME280;7095;51.388;6.196;2022-12-15T11:35:32;54883.06;;;-145.32;100.00
14041;BME280;7095;51.388;6.196;2022-12-15T11:38:15;54879.09;;;-145.32;100.00
14041;BME280;7095;51.388;6.196;2022-12-15T11:40:48;54805.50;;;-145.32;100.00
14041;BME280;7095;51.388;6.196;2022-12-15T11:43:29;54799.53;;;-145.32;100.00
14041;BME280;7095;51.388;6.196;2022-12-15T11:46:18;54795.56;;;-145.32;100.00
14041;BME280;7095;51.388;6.196;2022-12-15T11:52:11;54729.94;;;-145.32;100.00
14041;BME280;7095;51.388;6.196;2022-12-15T11:54:48;54779.66;;;-145.32;100.00
14041;BME280;7095;51.388;6.196;2022-12-15T11:57:42;54735.91;;;-145.32;100.00
14041;BME280;7095;51.388;6.196;2022-12-15T12:00:19;54731.94;;;-145.32;100.00
14041;BME280;7095;51.388;6.196;2022-12-15T12:02:59;54731.94;;;-145.32;100.00
14041;BME280;7095;51.388;6.196;2022-12-15T12:06:00;54747.84;;;-145.32;100.00
14041;BME280;7095;51.388;6.196;2022-12-15T12:08:41;54753.81;;;-145.32;100.00
14041;BME280;7095;51.388;6.196;2022-12-15T12:11:19;54712.03;;;-145.32;100.00
14041;BME280;7095;51.388;6.196;2022-12-15T12:14:02;54725.97;;;-145.32;100.00
14041;BME280;7095;51.388;6.196;2022-12-15T12:16:45;54700.09;;;-145.32;100.00
14041;BME280;7095;51.388;6.196;2022-12-15T12:19:18;54688.16;;;-145.32;100.00
14041;BME280;7095;51.388;6.196;2022-12-15T12:21:54;54710.06;;;-145.32;100.00
14041;BME280;7095;51.388;6.196;2022-12-15T12:24:29;54725.97;;;-145.32;100.00
14041;BME280;7095;51.388;6.196;2022-12-15T12:27:03;54704.09;;;-145.32;100.00
14041;BME280;7095;51.388;6.196;2022-12-15T12:29:34;54698.13;;;-145.32;100.00
14041;BME280;7095;51.388;6.196;2022-12-15T12:32:12;54684.19;;;-145.32;100.00
14041;BME280;7095;51.388;6.196;2022-12-15T12:34:53;54676.25;;;-145.32;100.00
14041;BME280;7095;51.388;6.196;2022-12-15T12:37:50;54712.03;;;-145.32;100.00
14041;BME280;7095;51.388;6.196;2022-12-15T12:40:37;54684.19;;;-145.32;100.00
14041;BME280;7095;51.388;6.196;2022-12-15T12:43:18;54640.44;;;-145.32;100.00
14041;BME280;7095;51.388;6.196;2022-12-15T12:45:53;54646.41;;;-145.32;100.00
14041;BME280;7095;51.388;6.196;2022-12-15T12:48:29;54642.44;;;-145.32;100.00
14041;BME280;7095;51.388;6.196;2022-12-15T12:51:11;54618.56;;;-145.32;100.00
14041;BME280;7095;51.388;6.196;2022-12-15T12:53:44;54630.50;;;-145.32;100.00
14041;BME280;7095;51.388;6.196;2022-12-15T12:56:36;54648.41;;;-145.32;100.00
14041;BME280;7095;51.388;6.196;2022-12-15T12:59:35;54588.75;;;-145.32;100.00
14041;BME280;7095;51.388;6.196;2022-12-15T13:05:28;54614.59;;;-145.32;100.00
14041;BME280;7095;51.388;6.196;2022-12-15T13:14:42;54582.78;;;-145.32;100.00
14041;BME280;7095;51.388;6.196;2022-12-15T13:17:37;54497.25;;;-145.32;100.00
14041;BME280;7095;51.388;6.196;2022-12-15T13:20:26;54387.88;;;-145.32;100.00
14041;BME280;7095;51.388;6.196;2022-12-15T13:23:32;54447.53;;;-145.32;100.00
14041;BME280;7095;51.388;6.196;2022-12-15T13:26:13;54487.31;;;-145.32;100.00
14041;BME280;7095;51.388;6.196;2022-12-15T13:28:49;54495.28;;;-145.32;100.00
14041;BME280;7095;51.388;6.196;2022-12-15T13:31:39;54455.50;;;-145.32;100.00
14041;BME280;7095;51.388;6.196;2022-12-15T13:34:17;54364.03;;;-145.32;100.00
14041;BME280;7095;51.388;6.196;2022-12-15T13:36:54;54405.78;;;-145.32;100.00
14041;BME280;7095;51.388;6.196;2022-12-15T13:42:34;54336.19;;;-145.32;100.00
14041;BME280;7095;51.388;6.196;2022-12-15T13:45:40;54296.41;;;-145.32;100.00
14041;BME280;7095;51.388;6.196;2022-12-15T13:48:28;54292.44;;;-145.32;100.00
14041;BME280;7095;51.388;6.196;2022-12-15T13:51:17;54362.03;;;-145.32;100.00